Cascade, MT

7:46 AM MDT on July 30, 2014 (GMT -0600)
Helena Regional (KHLN) Elev 3865 ft | 46.60 °N, 111.99 °W | Change Station

Current weather conditions updated 53 minutes ago

Clear
Clear
60 °F
Feels Like 60 °F
N
0
Wind Variable Wind from North

Today is forecast to be nearly the same temperature as yesterday.

Today
High -- | Low -- °F
--% Chance of Precip.
Yesterday
High -- | Low -- °F
Precip. -- in
6:03 AM 9:02 PM
Waxing Crescent, 11% visible
Pressure 30.17 in
Visibility 10.0 miles
Clouds Clear
Dew Point 46 °F
Humidity 60%
Rainfall 0.00 in
Snow Depth Not available.
UV 0 out of 12
Pollen 6.90 out of 12
Air Quality Not available.
Flu Activity Not available.
METAR KHLN 301253Z 00000KT 10SM CLR 16/08 A3021 RMK AO2 SLP215 T01560078

More Conditions Fewer Conditions

Pressure 30.17 in
Visibility 10.0 miles
Clouds Clear
Dew Point 46 °F
Humidity 60%
Rainfall 0.00 in
Snow Depth Not available.
UV 0 out of 12
Pollen 6.90 out of 12
Air Quality Not available.
Flu Activity Not available.
METAR KHLN 301253Z 00000KT 10SM CLR 16/08 A3021 RMK AO2 SLP215 T01560078

More Conditions Fewer Conditions

10-Day Weather Forecast

Almanac

Astronomy

Jul. 30, 2014 Rise Set
Actual Time 6:03 AM MDT 9:02 PM MDT
Civil Twilight 5:27 AM MDT 9:38 PM MDT
Nautical Twilight 4:40 AM MDT 10:24 PM MDT
Astronomical Twilight 3:44 AM MDT 11:19 PM MDT
Moon 9:56 AM MDT 10:27 PM MDT
Length of Visible Light 16h 11m
Length of Day
14h 59m
Tomorrow will be 2m 35s shorter.
Waxing Crescent, 11% of the Moon is Illuminated
Today
Waxing Crescent
Aug 3
First Quarter
Aug 10
Full
Aug 17
Last Quarter
Aug 25
New

Today's Extremes

State Highs State Lows

Community

WunderPhotos

Upload Photos

1,739,080 photos uploaded!

Nearby

Snow Depth

Station Depth Elevation
Stringer Creek 0 in 6550 ft
Onion Park 0 in 7410 ft
Pickfoot Creek 0 in 6650 ft
Boulder Mountain 0 in 7950 ft
Wood Creek 0 in 5960 ft

Earthquake Activity

City Distance Mag. Time & Date
Townsend, Montana 66 miles 3.6 5:55 PM MDT
2014-07-23
Minimum magnitude displayed is 2.5.

Coastal Water Temperatures

Place Temperature
No Stations Reporting

Nearby Weather Stations

Station Location Temp. Dew Point Humidity Wind Precip. Elev Updated Type
Cascade, MT, Cascade, MT 64.9 °F 49 °F 56% North  at  1.0 mph 0.00 in / hr 3376 ft 7:41 AM MDT Normal
Big Sky Country, Craig, MT 57.0 °F 51 °F 80% SE  at  0.0 mph 0.00 in / hr 3566 ft 7:46 AM MDT Rapid Fire
RAWS DEARBORN MT, Wolf Creek, MT 55 °F 44 °F 67% WSW  at  2 mph 0.00 in / hr 3571 ft 6:30 AM MDT MADIS
Wolf Creek Lodge, Wolf Creek, MT 59.4 °F 46 °F 62% North  at  0.0 mph 0.00 in / hr 3622 ft 7:37 AM MDT Normal
MesoWest Bowmans MT-200 MP 110.4 , Simms, MT 56 °F 43 °F 61% WSW  at  3 mph 0.00 in / hr 4300 ft 6:41 AM MDT MADIS

Show More Stations Show Fewer Stations